sensor_id;sensor_type;location;lat;lon;timestamp;temperature;humidity
16503;DHT22;53067;48.114;11.694;2022-09-27T00:01:09;13.60;65.70
16503;DHT22;53067;48.114;11.694;2022-09-27T00:03:37;13.50;65.80
16503;DHT22;53067;48.114;11.694;2022-09-27T00:06:10;13.60;66.10
16503;DHT22;53067;48.114;11.694;2022-09-27T00:08:37;13.50;66.20
16503;DHT22;53067;48.114;11.694;2022-09-27T00:11:06;13.50;66.20
16503;DHT22;53067;48.114;11.694;2022-09-27T00:13:35;13.60;66.30
16503;DHT22;53067;48.114;11.694;2022-09-27T00:16:03;13.50;66.50
16503;DHT22;53067;48.114;11.694;2022-09-27T00:18:32;13.50;67.00
16503;DHT22;53067;48.114;11.694;2022-09-27T00:21:05;13.50;67.30
16503;DHT22;53067;48.114;11.694;2022-09-27T00:23:34;13.50;67.60
16503;DHT22;53067;48.114;11.694;2022-09-27T00:26:02;13.50;67.70
16503;DHT22;53067;48.114;11.694;2022-09-27T00:28:31;13.50;67.90
16503;DHT22;53067;48.114;11.694;2022-09-27T00:30:59;13.50;68.20
16503;DHT22;53067;48.114;11.694;2022-09-27T00:33:27;13.50;68.30
16503;DHT22;53067;48.114;11.694;2022-09-27T00:36:02;13.60;68.20
16503;DHT22;53067;48.114;11.694;2022-09-27T00:38:24;13.60;68.10
16503;DHT22;53067;48.114;11.694;2022-09-27T00:40:51;13.60;68.20
16503;DHT22;53067;48.114;11.694;2022-09-27T00:43:21;13.50;68.30
16503;DHT22;53067;48.114;11.694;2022-09-27T00:45:59;13.50;68.50
16503;DHT22;53067;48.114;11.694;2022-09-27T00:48:25;13.60;68.60
16503;DHT22;53067;48.114;11.694;2022-09-27T00:50:56;13.60;69.10
16503;DHT22;53067;48.114;11.694;2022-09-27T00:53:30;13.40;69.50
16503;DHT22;53067;48.114;11.694;2022-09-27T00:56:04;13.40;70.20
16503;DHT22;53067;48.114;11.694;2022-09-27T00:58:34;13.40;70.80
16503;DHT22;53067;48.114;11.694;2022-09-27T01:01:04;13.40;71.10
16503;DHT22;53067;48.114;11.694;2022-09-27T01:06:09;13.40;71.40
16503;DHT22;53067;48.114;11.694;2022-09-27T01:08:37;13.40;71.50
16503;DHT22;53067;48.114;11.694;2022-09-27T01:11:12;13.40;71.40
16503;DHT22;53067;48.114;11.694;2022-09-27T01:13:42;13.40;71.50
16503;DHT22;53067;48.114;11.694;2022-09-27T01:16:35;13.40;72.00
16503;DHT22;53067;48.114;11.694;2022-09-27T01:33:24;13.10;74.20
16503;DHT22;53067;48.114;11.694;2022-09-27T01:41:38;13.10;74.90
16503;DHT22;53067;48.114;11.694;2022-09-27T01:46:55;12.90;74.70
16503;DHT22;53067;48.114;11.694;2022-09-27T01:49:41;12.90;74.80
16503;DHT22;53067;48.114;11.694;2022-09-27T01:52:07;13.00;75.80
16503;DHT22;53067;48.114;11.694;2022-09-27T01:54:46;12.90;74.80
16503;DHT22;53067;48.114;11.694;2022-09-27T01:57:11;12.90;74.80
16503;DHT22;53067;48.114;11.694;2022-09-27T01:59:48;12.90;74.10
16503;DHT22;53067;48.114;11.694;2022-09-27T02:02:17;13.00;74.80
16503;DHT22;53067;48.114;11.694;2022-09-27T02:04:47;13.00;74.90
16503;DHT22;53067;48.114;11.694;2022-09-27T02:07:30;12.90;74.60
16503;DHT22;53067;48.114;11.694;2022-09-27T02:10:02;13.00;75.00
16503;DHT22;53067;48.114;11.694;2022-09-27T02:12:30;13.00;76.00
16503;DHT22;53067;48.114;11.694;2022-09-27T02:15:03;12.90;74.90
16503;DHT22;53067;48.114;11.694;2022-09-27T02:20:34;12.80;76.90
16503;DHT22;53067;48.114;11.694;2022-09-27T02:25:57;12.80;76.50
16503;DHT22;53067;48.114;11.694;2022-09-27T02:28:42;12.70;76.60
16503;DHT22;53067;48.114;11.694;2022-09-27T02:31:09;12.70;77.10
16503;DHT22;53067;48.114;11.694;2022-09-27T02:36:10;12.70;77.20
16503;DHT22;53067;48.114;11.694;2022-09-27T02:38:38;12.70;77.30
16503;DHT22;53067;48.114;11.694;2022-09-27T02:41:14;12.70;77.60
16503;DHT22;53067;48.114;11.694;2022-09-27T02:43:45;12.70;77.60
16503;DHT22;53067;48.114;11.694;2022-09-27T02:52:56;12.60;77.80
16503;DHT22;53067;48.114;11.694;2022-09-27T02:54:53;12.60;78.80
16503;DHT22;53067;48.114;11.694;2022-09-27T02:57:34;12.60;78.10
16503;DHT22;53067;48.114;11.694;2022-09-27T03:00:05;12.60;78.40
16503;DHT22;53067;48.114;11.694;2022-09-27T03:02:47;12.60;78.50
16503;DHT22;53067;48.114;11.694;2022-09-27T03:05:16;12.60;78.30
16503;DHT22;53067;48.114;11.694;2022-09-27T03:07:46;12.60;78.20
16503;DHT22;53067;48.114;11.694;2022-09-27T03:10:23;12.60;79.20
16503;DHT22;53067;48.114;11.694;2022-09-27T03:12:50;12.60;78.40
16503;DHT22;53067;48.114;11.694;2022-09-27T03:15:20;12.60;78.40
16503;DHT22;53067;48.114;11.694;2022-09-27T03:17:47;12.60;78.60
16503;DHT22;53067;48.114;11.694;2022-09-27T03:20:34;12.60;78.40
16503;DHT22;53067;48.114;11.694;2022-09-27T03:23:02;12.60;78.40
16503;DHT22;53067;48.114;11.694;2022-09-27T03:25:29;12.70;78.70
16503;DHT22;53067;48.114;11.694;2022-09-27T03:27:57;12.70;78.30
16503;DHT22;53067;48.114;11.694;2022-09-27T03:30:24;12.70;78.50
16503;DHT22;53067;48.114;11.694;2022-09-27T03:32:52;12.70;78.40
16503;DHT22;53067;48.114;11.694;2022-09-27T03:35:20;12.60;78.50
16503;DHT22;53067;48.114;11.694;2022-09-27T03:37:48;12.60;78.40
16503;DHT22;53067;48.114;11.694;2022-09-27T03:40:15;12.60;78.40
16503;DHT22;53067;48.114;11.694;2022-09-27T03:42:43;12.50;78.40
16503;DHT22;53067;48.114;11.694;2022-09-27T03:45:10;12.50;78.60
16503;DHT22;53067;48.114;11.694;2022-09-27T03:47:39;12.50;78.90
16503;DHT22;53067;48.114;11.694;2022-09-27T03:50:08;12.50;78.90
16503;DHT22;53067;48.114;11.694;2022-09-27T03:52:37;12.50;78.90
16503;DHT22;53067;48.114;11.694;2022-09-27T03:55:05;12.60;78.90
16503;DHT22;53067;48.114;11.694;2022-09-27T03:57:33;12.60;79.50
16503;DHT22;53067;48.114;11.694;2022-09-27T04:00:01;12.60;78.80
16503;DHT22;53067;48.114;11.694;2022-09-27T04:02:28;12.60;78.80
16503;DHT22;53067;48.114;11.694;2022-09-27T04:04:56;12.50;78.70
16503;DHT22;53067;48.114;11.694;2022-09-27T04:07:23;12.60;78.70
16503;DHT22;53067;48.114;11.694;2022-09-27T04:09:51;12.60;78.50
16503;DHT22;53067;48.114;11.694;2022-09-27T04:12:18;12.60;78.70
16503;DHT22;53067;48.114;11.694;2022-09-27T04:14:46;12.70;78.60
16503;DHT22;53067;48.114;11.694;2022-09-27T04:17:14;12.70;78.40
16503;DHT22;53067;48.114;11.694;2022-09-27T04:19:42;12.70;78.50
16503;DHT22;53067;48.114;11.694;2022-09-27T04:22:09;12.70;78.50
16503;DHT22;53067;48.114;11.694;2022-09-27T04:24:38;12.60;78.50
16503;DHT22;53067;48.114;11.694;2022-09-27T04:27:06;12.60;78.60
16503;DHT22;53067;48.114;11.694;2022-09-27T04:29:33;12.50;78.80
16503;DHT22;53067;48.114;11.694;2022-09-27T04:32:01;12.50;78.90
16503;DHT22;53067;48.114;11.694;2022-09-27T04:34:29;12.50;79.20
16503;DHT22;53067;48.114;11.694;2022-09-27T04:37:14;12.60;79.20
16503;DHT22;53067;48.114;11.694;2022-09-27T04:39:42;12.50;79.00
16503;DHT22;53067;48.114;11.694;2022-09-27T04:42:09;12.50;79.00
16503;DHT22;53067;48.114;11.694;2022-09-27T04:44:37;12.50;79.10
16503;DHT22;53067;48.114;11.694;2022-09-27T04:47:04;12.50;79.20
16503;DHT22;53067;48.114;11.694;2022-09-27T04:49:32;12.50;79.40
16503;DHT22;53067;48.114;11.694;2022-09-27T04:52:00;12.50;79.40
16503;DHT22;53067;48.114;11.694;2022-09-27T04:54:28;12.50;79.20
16503;DHT22;53067;48.114;11.694;2022-09-27T04:56:55;12.50;79.10
16503;DHT22;53067;48.114;11.694;2022-09-27T04:59:23;12.50;79.20
16503;DHT22;53067;48.114;11.694;2022-09-27T05:01:51;12.50;79.20
16503;DHT22;53067;48.114;11.694;2022-09-27T05:04:19;12.50;79.20
16503;DHT22;53067;48.114;11.694;2022-09-27T05:06:47;12.50;79.10
16503;DHT22;53067;48.114;11.694;2022-09-27T05:09:14;12.50;79.10
16503;DHT22;53067;48.114;11.694;2022-09-27T05:11:42;12.50;79.10
16503;DHT22;53067;48.114;11.694;2022-09-27T05:14:09;12.50;79.00
16503;DHT22;53067;48.114;11.694;2022-09-27T05:16:39;12.60;79.00
16503;DHT22;53067;48.114;11.694;2022-09-27T05:19:06;12.60;78.90
16503;DHT22;53067;48.114;11.694;2022-09-27T05:21:34;12.60;78.80
16503;DHT22;53067;48.114;11.694;2022-09-27T05:24:02;12.50;78.40
16503;DHT22;53067;48.114;11.694;2022-09-27T05:26:29;12.50;78.30
16503;DHT22;53067;48.114;11.694;2022-09-27T05:28:57;12.50;78.50
16503;DHT22;53067;48.114;11.694;2022-09-27T05:31:24;12.50;78.00
16503;DHT22;53067;48.114;11.694;2022-09-27T05:33:54;12.50;78.00
16503;DHT22;53067;48.114;11.694;2022-09-27T05:36:21;12.50;78.30
16503;DHT22;53067;48.114;11.694;2022-09-27T05:38:49;12.50;77.90
16503;DHT22;53067;48.114;11.694;2022-09-27T05:41:16;12.50;77.50
16503;DHT22;53067;48.114;11.694;2022-09-27T05:43:44;12.40;77.80
16503;DHT22;53067;48.114;11.694;2022-09-27T05:46:12;12.40;77.70
16503;DHT22;53067;48.114;11.694;2022-09-27T05:48:40;12.40;77.60
16503;DHT22;53067;48.114;11.694;2022-09-27T05:51:07;12.40;77.80
16503;DHT22;53067;48.114;11.694;2022-09-27T05:53:35;12.40;77.30
16503;DHT22;53067;48.114;11.694;2022-09-27T05:56:03;12.30;77.00
16503;DHT22;53067;48.114;11.694;2022-09-27T05:58:31;12.30;76.50
16503;DHT22;53067;48.114;11.694;2022-09-27T06:00:59;12.30;77.00
16503;DHT22;53067;48.114;11.694;2022-09-27T06:03:27;12.30;76.70
16503;DHT22;53067;48.114;11.694;2022-09-27T06:05:54;12.30;76.00
16503;DHT22;53067;48.114;11.694;2022-09-27T06:08:22;12.30;76.20
16503;DHT22;53067;48.114;11.694;2022-09-27T06:10:50;12.30;75.90
16503;DHT22;53067;48.114;11.694;2022-09-27T06:13:19;12.30;75.70
16503;DHT22;53067;48.114;11.694;2022-09-27T06:15:46;12.30;75.50
16503;DHT22;53067;48.114;11.694;2022-09-27T06:18:16;12.20;75.80
16503;DHT22;53067;48.114;11.694;2022-09-27T06:20:44;12.30;76.30
16503;DHT22;53067;48.114;11.694;2022-09-27T06:23:17;12.30;75.70
16503;DHT22;53067;48.114;11.694;2022-09-27T06:25:46;12.30;75.50
16503;DHT22;53067;48.114;11.694;2022-09-27T06:28:13;12.20;75.20
16503;DHT22;53067;48.114;11.694;2022-09-27T06:30:50;12.20;75.70
16503;DHT22;53067;48.114;11.694;2022-09-27T06:33:16;12.10;75.80
16503;DHT22;53067;48.114;11.694;2022-09-27T06:35:45;12.10;76.10
16503;DHT22;53067;48.114;11.694;2022-09-27T06:38:16;12.10;76.10
16503;DHT22;53067;48.114;11.694;2022-09-27T06:40:45;12.10;76.50
16503;DHT22;53067;48.114;11.694;2022-09-27T06:43:16;12.10;76.30
16503;DHT22;53067;48.114;11.694;2022-09-27T06:45:43;12.10;76.40
16503;DHT22;53067;48.114;11.694;2022-09-27T06:48:13;12.10;76.80
16503;DHT22;53067;48.114;11.694;2022-09-27T06:50:44;12.20;76.30
16503;DHT22;53067;48.114;11.694;2022-09-27T06:53:14;12.20;75.90
16503;DHT22;53067;48.114;11.694;2022-09-27T06:55:42;12.30;75.90
16503;DHT22;53067;48.114;11.694;2022-09-27T06:58:11;12.30;75.30
16503;DHT22;53067;48.114;11.694;2022-09-27T07:00:57;12.30;74.60
16503;DHT22;53067;48.114;11.694;2022-09-27T07:03:25;12.20;75.10
16503;DHT22;53067;48.114;11.694;2022-09-27T07:06:02;12.30;75.20
16503;DHT22;53067;48.114;11.694;2022-09-27T07:08:30;12.30;75.30
16503;DHT22;53067;48.114;11.694;2022-09-27T07:11:04;12.40;75.20
16503;DHT22;53067;48.114;11.694;2022-09-27T07:13:33;12.50;75.20
16503;DHT22;53067;48.114;11.694;2022-09-27T07:16:02;12.50;74.20
16503;DHT22;53067;48.114;11.694;2022-09-27T07:18:30;12.50;74.60
16503;DHT22;53067;48.114;11.694;2022-09-27T07:20:59;12.60;73.40
16503;DHT22;53067;48.114;11.694;2022-09-27T07:23:27;12.60;73.70
16503;DHT22;53067;48.114;11.694;2022-09-27T07:25:55;12.60;73.60
16503;DHT22;53067;48.114;11.694;2022-09-27T07:28:22;12.60;73.00
16503;DHT22;53067;48.114;11.694;2022-09-27T07:30:56;12.70;73.00
16503;DHT22;53067;48.114;11.694;2022-09-27T07:33:24;12.70;72.70
16503;DHT22;53067;48.114;11.694;2022-09-27T07:35:51;12.80;72.80
16503;DHT22;53067;48.114;11.694;2022-09-27T07:38:19;12.90;73.10
16503;DHT22;53067;48.114;11.694;2022-09-27T07:40:47;12.90;72.00
16503;DHT22;53067;48.114;11.694;2022-09-27T07:43:21;12.90;71.10
16503;DHT22;53067;48.114;11.694;2022-09-27T07:45:49;12.90;70.80
16503;DHT22;53067;48.114;11.694;2022-09-27T07:48:16;12.80;71.50
16503;DHT22;53067;48.114;11.694;2022-09-27T07:50:44;12.80;71.30
16503;DHT22;53067;48.114;11.694;2022-09-27T07:53:13;12.90;71.60
16503;DHT22;53067;48.114;11.694;2022-09-27T07:55:41;13.00;71.60
16503;DHT22;53067;48.114;11.694;2022-09-27T07:58:10;13.00;71.20
16503;DHT22;53067;48.114;11.694;2022-09-27T08:00:39;13.10;71.30
16503;DHT22;53067;48.114;11.694;2022-09-27T08:03:12;13.10;70.60
16503;DHT22;53067;48.114;11.694;2022-09-27T08:05:43;13.10;71.20
16503;DHT22;53067;48.114;11.694;2022-09-27T08:08:13;13.10;69.00
16503;DHT22;53067;48.114;11.694;2022-09-27T08:10:41;13.10;69.40
16503;DHT22;53067;48.114;11.694;2022-09-27T08:13:10;13.10;69.30
16503;DHT22;53067;48.114;11.694;2022-09-27T08:15:38;13.10;68.20
16503;DHT22;53067;48.114;11.694;2022-09-27T08:18:06;13.00;67.60
16503;DHT22;53067;48.114;11.694;2022-09-27T08:20:36;13.00;67.20
16503;DHT22;53067;48.114;11.694;2022-09-27T08:23:03;12.90;67.20
16503;DHT22;53067;48.114;11.694;2022-09-27T08:25:31;12.90;67.70
16503;DHT22;53067;48.114;11.694;2022-09-27T08:28:00;12.90;69.50
16503;DHT22;53067;48.114;11.694;2022-09-27T08:30:49;12.70;69.70
16503;DHT22;53067;48.114;11.694;2022-09-27T08:33:17;12.40;69.90
16503;DHT22;53067;48.114;11.694;2022-09-27T08:35:45;12.20;70.70
16503;DHT22;53067;48.114;11.694;2022-09-27T08:38:12;12.10;71.10
16503;DHT22;53067;48.114;11.694;2022-09-27T08:40:54;12.00;72.00
16503;DHT22;53067;48.114;11.694;2022-09-27T08:43:47;11.80;71.20
16503;DHT22;53067;48.114;11.694;2022-09-27T08:48:53;11.50;73.80
16503;DHT22;53067;48.114;11.694;2022-09-27T08:51:25;11.40;74.30
16503;DHT22;53067;48.114;11.694;2022-09-27T08:53:56;11.40;74.80
16503;DHT22;53067;48.114;11.694;2022-09-27T08:56:22;11.30;74.40
16503;DHT22;53067;48.114;11.694;2022-09-27T08:59:03;11.30;74.20
16503;DHT22;53067;48.114;11.694;2022-09-27T09:01:29;11.40;75.20
16503;DHT22;53067;48.114;11.694;2022-09-27T09:03:59;11.50;74.80
16503;DHT22;53067;48.114;11.694;2022-09-27T09:06:34;11.60;73.40
16503;DHT22;53067;48.114;11.694;2022-09-27T09:19:49;12.00;71.60
16503;DHT22;53067;48.114;11.694;2022-09-27T09:22:38;11.90;71.40
16503;DHT22;53067;48.114;11.694;2022-09-27T09:30:28;12.20;72.10
16503;DHT22;53067;48.114;11.694;2022-09-27T09:38:33;12.80;69.10
16503;DHT22;53067;48.114;11.694;2022-09-27T09:41:05;13.00;68.20
16503;DHT22;53067;48.114;11.694;2022-09-27T09:43:42;13.00;68.20
16503;DHT22;53067;48.114;11.694;2022-09-27T09:46:12;13.20;65.40
16503;DHT22;53067;48.114;11.694;2022-09-27T09:49:00;13.20;65.60
16503;DHT22;53067;48.114;11.694;2022-09-27T09:51:34;13.10;65.90
16503;DHT22;53067;48.114;11.694;2022-09-27T09:56:50;12.90;65.60
16503;DHT22;53067;48.114;11.694;2022-09-27T09:59:25;12.80;66.20
16503;DHT22;53067;48.114;11.694;2022-09-27T10:01:49;12.80;65.90
16503;DHT22;53067;48.114;11.694;2022-09-27T10:04:25;12.80;66.60
16503;DHT22;53067;48.114;11.694;2022-09-27T10:06:56;12.80;66.90
16503;DHT22;53067;48.114;11.694;2022-09-27T10:09:26;12.70;66.30
16503;DHT22;53067;48.114;11.694;2022-09-27T10:11:54;12.60;66.90
16503;DHT22;53067;48.114;11.694;2022-09-27T10:14:22;12.60;66.80
16503;DHT22;53067;48.114;11.694;2022-09-27T10:16:55;12.60;66.50
16503;DHT22;53067;48.114;11.694;2022-09-27T10:19:31;12.50;66.50
16503;DHT22;53067;48.114;11.694;2022-09-27T10:25:00;12.60;68.50
16503;DHT22;53067;48.114;11.694;2022-09-27T10:27:25;12.50;68.90
16503;DHT22;53067;48.114;11.694;2022-09-27T10:29:59;12.40;69.70
16503;DHT22;53067;48.114;11.694;2022-09-27T10:32:32;12.40;71.20
16503;DHT22;53067;48.114;11.694;2022-09-27T10:40:50;12.40;72.60
16503;DHT22;53067;48.114;11.694;2022-09-27T10:43:28;12.30;72.70
16503;DHT22;53067;48.114;11.694;2022-09-27T10:46:15;12.20;73.20
16503;DHT22;53067;48.114;11.694;2022-09-27T10:48:42;12.20;74.20
16503;DHT22;53067;48.114;11.694;2022-09-27T10:51:28;12.20;73.40
16503;DHT22;53067;48.114;11.694;2022-09-27T10:53:56;12.20;73.30
16503;DHT22;53067;48.114;11.694;2022-09-27T10:56:32;12.20;74.40
16503;DHT22;53067;48.114;11.694;2022-09-27T10:59:00;12.20;75.00
16503;DHT22;53067;48.114;11.694;2022-09-27T11:01:45;12.10;75.10
16503;DHT22;53067;48.114;11.694;2022-09-27T11:04:25;12.00;74.90
16503;DHT22;53067;48.114;11.694;2022-09-27T11:06:48;11.90;76.50
16503;DHT22;53067;48.114;11.694;2022-09-27T11:09:19;11.90;77.70
16503;DHT22;53067;48.114;11.694;2022-09-27T11:11:48;12.00;78.60
16503;DHT22;53067;48.114;11.694;2022-09-27T11:14:23;12.40;78.60
16503;DHT22;53067;48.114;11.694;2022-09-27T11:25:45;16.30;64.80
16503;DHT22;53067;48.114;11.694;2022-09-27T11:28:16;16.70;60.50
16503;DHT22;53067;48.114;11.694;2022-09-27T11:36:26;16.80;56.40
16503;DHT22;53067;48.114;11.694;2022-09-27T11:39:06;16.80;57.90
16503;DHT22;53067;48.114;11.694;2022-09-27T11:44:34;16.70;55.20
16503;DHT22;53067;48.114;11.694;2022-09-27T11:47:09;16.10;56.20
16503;DHT22;53067;48.114;11.694;2022-09-27T11:50:02;15.50;57.30
16503;DHT22;53067;48.114;11.694;2022-09-27T11:58:21;15.00;61.50
16503;DHT22;53067;48.114;11.694;2022-09-27T12:01:01;15.50;59.40
16503;DHT22;53067;48.114;11.694;2022-09-27T12:03:36;15.90;59.50
16503;DHT22;53067;48.114;11.694;2022-09-27T12:06:10;16.10;58.80
16503;DHT22;53067;48.114;11.694;2022-09-27T12:09:00;16.20;57.60
16503;DHT22;53067;48.114;11.694;2022-09-27T12:16:52;15.40;58.50
16503;DHT22;53067;48.114;11.694;2022-09-27T12:19:32;15.10;60.10
16503;DHT22;53067;48.114;11.694;2022-09-27T12:24:42;14.60;59.80
16503;DHT22;53067;48.114;11.694;2022-09-27T12:27:20;14.50;61.30
16503;DHT22;53067;48.114;11.694;2022-09-27T12:29:48;14.60;61.80
16503;DHT22;53067;48.114;11.694;2022-09-27T12:32:32;15.40;63.00
16503;DHT22;53067;48.114;11.694;2022-09-27T12:35:03;16.40;57.40
16503;DHT22;53067;48.114;11.694;2022-09-27T12:37:51;16.90;55.10
16503;DHT22;53067;48.114;11.694;2022-09-27T12:40:34;16.90;54.30
16503;DHT22;53067;48.114;11.694;2022-09-27T12:45:52;16.50;55.40
16503;DHT22;53067;48.114;11.694;2022-09-27T12:50:53;16.30;57.60
16503;DHT22;53067;48.114;11.694;2022-09-27T12:53:27;17.00;57.30
16503;DHT22;53067;48.114;11.694;2022-09-27T13:01:39;18.20;50.00
16503;DHT22;53067;48.114;11.694;2022-09-27T13:04:15;18.10;50.00
16503;DHT22;53067;48.114;11.694;2022-09-27T13:12:10;18.60;48.90
16503;DHT22;53067;48.114;11.694;2022-09-27T13:25:51;17.60;48.60
16503;DHT22;53067;48.114;11.694;2022-09-27T13:31:03;16.90;48.50
16503;DHT22;53067;48.114;11.694;2022-09-27T13:36:05;16.30;49.80
16503;DHT22;53067;48.114;11.694;2022-09-27T13:38:34;16.20;50.40
16503;DHT22;53067;48.114;11.694;2022-09-27T13:41:16;16.10;51.10
16503;DHT22;53067;48.114;11.694;2022-09-27T13:43:48;16.00;52.10
16503;DHT22;53067;48.114;11.694;2022-09-27T13:46:17;15.80;52.20
16503;DHT22;53067;48.114;11.694;2022-09-27T13:48:55;15.60;52.40
16503;DHT22;53067;48.114;11.694;2022-09-27T13:51:41;15.30;52.40
16503;DHT22;53067;48.114;11.694;2022-09-27T13:57:06;14.80;53.50
16503;DHT22;53067;48.114;11.694;2022-09-27T13:59:44;14.60;54.40
16503;DHT22;53067;48.114;11.694;2022-09-27T14:04:50;14.50;55.60
16503;DHT22;53067;48.114;11.694;2022-09-27T14:10:15;14.20;56.10
16503;DHT22;53067;48.114;11.694;2022-09-27T14:12:43;14.10;59.50
16503;DHT22;53067;48.114;11.694;2022-09-27T14:15:23;14.00;61.30
16503;DHT22;53067;48.114;11.694;2022-09-27T14:17:47;13.80;62.30
16503;DHT22;53067;48.114;11.694;2022-09-27T14:20:38;13.60;62.80
16503;DHT22;53067;48.114;11.694;2022-09-27T14:23:13;13.50;63.80
16503;DHT22;53067;48.114;11.694;2022-09-27T14:25:43;13.30;63.30
16503;DHT22;53067;48.114;11.694;2022-09-27T14:28:26;13.10;63.10
16503;DHT22;53067;48.114;11.694;2022-09-27T14:31:14;13.00;60.70
16503;DHT22;53067;48.114;11.694;2022-09-27T14:33:44;12.80;61.20
16503;DHT22;53067;48.114;11.694;2022-09-27T14:36:24;12.70;62.10
16503;DHT22;53067;48.114;11.694;2022-09-27T14:39:24;12.70;62.80
16503;DHT22;53067;48.114;11.694;2022-09-27T14:41:54;12.70;62.50
16503;DHT22;53067;48.114;11.694;2022-09-27T14:44:21;12.70;62.00
16503;DHT22;53067;48.114;11.694;2022-09-27T14:47:06;12.70;61.50
16503;DHT22;53067;48.114;11.694;2022-09-27T14:49:34;12.80;61.70
16503;DHT22;53067;48.114;11.694;2022-09-27T14:52:13;12.80;60.60
16503;DHT22;53067;48.114;11.694;2022-09-27T14:54:31;12.80;60.60
16503;DHT22;53067;48.114;11.694;2022-09-27T14:56:58;12.70;60.40
16503;DHT22;53067;48.114;11.694;2022-09-27T14:59:29;12.70;60.90
16503;DHT22;53067;48.114;11.694;2022-09-27T15:02:10;12.70;61.00
16503;DHT22;53067;48.114;11.694;2022-09-27T15:04:34;12.70;60.80
16503;DHT22;53067;48.114;11.694;2022-09-27T15:07:02;12.70;61.40
16503;DHT22;53067;48.114;11.694;2022-09-27T15:09:30;12.70;61.10
16503;DHT22;53067;48.114;11.694;2022-09-27T15:11:59;12.70;61.30
16503;DHT22;53067;48.114;11.694;2022-09-27T15:14:28;12.80;61.90
16503;DHT22;53067;48.114;11.694;2022-09-27T15:16:58;12.80;61.80
16503;DHT22;53067;48.114;11.694;2022-09-27T15:19:31;12.80;61.50
16503;DHT22;53067;48.114;11.694;2022-09-27T15:22:28;12.80;61.60
16503;DHT22;53067;48.114;11.694;2022-09-27T15:24:47;12.70;61.30
16503;DHT22;53067;48.114;11.694;2022-09-27T15:27:21;12.70;61.80
16503;DHT22;53067;48.114;11.694;2022-09-27T15:29:49;12.70;62.00
16503;DHT22;53067;48.114;11.694;2022-09-27T15:32:20;12.70;62.30
16503;DHT22;53067;48.114;11.694;2022-09-27T15:34:48;12.70;62.10
16503;DHT22;53067;48.114;11.694;2022-09-27T15:37:36;12.70;62.30
16503;DHT22;53067;48.114;11.694;2022-09-27T15:42:55;12.70;62.50
16503;DHT22;53067;48.114;11.694;2022-09-27T15:45:28;12.70;62.90
16503;DHT22;53067;48.114;11.694;2022-09-27T15:47:59;12.80;62.80
16503;DHT22;53067;48.114;11.694;2022-09-27T15:52:55;12.90;62.20
16503;DHT22;53067;48.114;11.694;2022-09-27T15:55:26;12.90;61.80
16503;DHT22;53067;48.114;11.694;2022-09-27T15:58:03;13.00;62.30
16503;DHT22;53067;48.114;11.694;2022-09-27T16:00:35;13.10;62.40
16503;DHT22;53067;48.114;11.694;2022-09-27T16:03:02;13.00;61.70
16503;DHT22;53067;48.114;11.694;2022-09-27T16:05:30;13.00;62.50
16503;DHT22;53067;48.114;11.694;2022-09-27T16:07:58;13.00;62.40
16503;DHT22;53067;48.114;11.694;2022-09-27T16:10:47;13.00;62.30
16503;DHT22;53067;48.114;11.694;2022-09-27T16:12:59;13.00;61.80
16503;DHT22;53067;48.114;11.694;2022-09-27T16:15:26;12.90;61.30
16503;DHT22;53067;48.114;11.694;2022-09-27T16:17:54;12.90;62.40
16503;DHT22;53067;48.114;11.694;2022-09-27T16:20:25;12.90;62.50
16503;DHT22;53067;48.114;11.694;2022-09-27T16:22:54;12.80;63.10
16503;DHT22;53067;48.114;11.694;2022-09-27T16:25:23;12.80;62.70
16503;DHT22;53067;48.114;11.694;2022-09-27T16:27:51;12.80;62.00
16503;DHT22;53067;48.114;11.694;2022-09-27T16:30:18;12.80;62.30
16503;DHT22;53067;48.114;11.694;2022-09-27T16:32:47;12.80;61.30
16503;DHT22;53067;48.114;11.694;2022-09-27T16:35:17;12.70;61.30
16503;DHT22;53067;48.114;11.694;2022-09-27T16:37:45;12.70;61.80
16503;DHT22;53067;48.114;11.694;2022-09-27T16:40:13;12.70;62.00
16503;DHT22;53067;48.114;11.694;2022-09-27T16:42:43;12.70;62.40
16503;DHT22;53067;48.114;11.694;2022-09-27T16:45:10;12.80;62.10
16503;DHT22;53067;48.114;11.694;2022-09-27T16:47:39;12.80;61.50
16503;DHT22;53067;48.114;11.694;2022-09-27T16:50:08;12.70;61.70
16503;DHT22;53067;48.114;11.694;2022-09-27T16:52:54;12.70;61.70
16503;DHT22;53067;48.114;11.694;2022-09-27T16:55:22;12.70;62.10
16503;DHT22;53067;48.114;11.694;2022-09-27T16:57:51;12.70;62.20
16503;DHT22;53067;48.114;11.694;2022-09-27T17:00:19;12.70;62.10
16503;DHT22;53067;48.114;11.694;2022-09-27T17:02:47;12.70;62.30
16503;DHT22;53067;48.114;11.694;2022-09-27T17:05:15;12.70;62.40
16503;DHT22;53067;48.114;11.694;2022-09-27T17:07:44;12.60;62.00
16503;DHT22;53067;48.114;11.694;2022-09-27T17:10:13;12.60;62.40
16503;DHT22;53067;48.114;11.694;2022-09-27T17:12:41;12.60;63.60
16503;DHT22;53067;48.114;11.694;2022-09-27T17:15:10;12.60;64.50
16503;DHT22;53067;48.114;11.694;2022-09-27T17:17:38;12.60;65.50
16503;DHT22;53067;48.114;11.694;2022-09-27T17:20:06;12.50;66.90
16503;DHT22;53067;48.114;11.694;2022-09-27T17:22:55;12.40;67.80
16503;DHT22;53067;48.114;11.694;2022-09-27T17:25:23;12.40;67.80
16503;DHT22;53067;48.114;11.694;2022-09-27T17:27:50;12.30;68.40
16503;DHT22;53067;48.114;11.694;2022-09-27T17:30:18;12.10;68.90
16503;DHT22;53067;48.114;11.694;2022-09-27T17:32:46;12.10;69.50
16503;DHT22;53067;48.114;11.694;2022-09-27T17:35:13;12.00;69.70
16503;DHT22;53067;48.114;11.694;2022-09-27T17:37:41;12.00;70.70
16503;DHT22;53067;48.114;11.694;2022-09-27T17:40:09;12.00;71.00
16503;DHT22;53067;48.114;11.694;2022-09-27T17:42:38;11.90;71.80
16503;DHT22;53067;48.114;11.694;2022-09-27T17:45:06;11.80;71.90
16503;DHT22;53067;48.114;11.694;2022-09-27T17:47:34;11.70;72.50
16503;DHT22;53067;48.114;11.694;2022-09-27T17:50:20;11.60;73.70
16503;DHT22;53067;48.114;11.694;2022-09-27T17:52:51;11.60;74.00
16503;DHT22;53067;48.114;11.694;2022-09-27T17:55:20;11.50;74.20
16503;DHT22;53067;48.114;11.694;2022-09-27T17:57:48;11.50;74.70
16503;DHT22;53067;48.114;11.694;2022-09-27T18:00:17;11.50;74.40
16503;DHT22;53067;48.114;11.694;2022-09-27T18:02:45;11.50;74.50
16503;DHT22;53067;48.114;11.694;2022-09-27T18:05:13;11.60;74.40
16503;DHT22;53067;48.114;11.694;2022-09-27T18:07:41;11.60;74.20
16503;DHT22;53067;48.114;11.694;2022-09-27T18:10:09;11.70;74.30
16503;DHT22;53067;48.114;11.694;2022-09-27T18:12:36;11.60;73.70